sensor_id;sensor_type;location;lat;lon;timestamp;P1;durP1;ratioP1;P2;durP2;ratioP2
37955;SDS011;23776;51.592;7.180;2023-08-06T00:00:06;14.10;;;9.00;;
37955;SDS011;23776;51.592;7.180;2023-08-06T00:02:33;22.80;;;9.20;;
37955;SDS011;23776;51.592;7.180;2023-08-06T00:04:59;18.38;;;10.13;;
37955;SDS011;23776;51.592;7.180;2023-08-06T00:07:25;14.30;;;9.20;;
37955;SDS011;23776;51.592;7.180;2023-08-06T00:09:50;23.52;;;9.82;;
37955;SDS011;23776;51.592;7.180;2023-08-06T00:12:16;16.38;;;8.32;;
37955;SDS011;23776;51.592;7.180;2023-08-06T00:14:41;15.65;;;8.30;;
37955;SDS011;23776;51.592;7.180;2023-08-06T00:17:07;16.17;;;7.55;;
37955;SDS011;23776;51.592;7.180;2023-08-06T00:19:33;13.85;;;8.18;;
37955;SDS011;23776;51.592;7.180;2023-08-06T00:21:59;12.05;;;7.22;;
37955;SDS011;23776;51.592;7.180;2023-08-06T00:24:24;11.65;;;8.07;;
37955;SDS011;23776;51.592;7.180;2023-08-06T00:26:50;12.48;;;8.35;;
37955;SDS011;23776;51.592;7.180;2023-08-06T00:29:15;12.27;;;7.47;;
37955;SDS011;23776;51.592;7.180;2023-08-06T00:31:41;15.48;;;8.82;;
37955;SDS011;23776;51.592;7.180;2023-08-06T00:34:07;14.88;;;8.35;;
37955;SDS011;23776;51.592;7.180;2023-08-06T00:36:32;14.43;;;9.25;;
37955;SDS011;23776;51.592;7.180;2023-08-06T00:38:58;18.08;;;7.70;;
37955;SDS011;23776;51.592;7.180;2023-08-06T00:41:23;13.88;;;8.75;;
37955;SDS011;23776;51.592;7.180;2023-08-06T00:43:49;16.88;;;8.75;;
37955;SDS011;23776;51.592;7.180;2023-08-06T00:46:15;20.88;;;9.95;;
37955;SDS011;23776;51.592;7.180;2023-08-06T00:48:40;18.27;;;9.35;;
37955;SDS011;23776;51.592;7.180;2023-08-06T00:51:08;20.58;;;10.10;;
37955;SDS011;23776;51.592;7.180;2023-08-06T00:53:35;18.10;;;9.90;;
37955;SDS011;23776;51.592;7.180;2023-08-06T00:56:02;20.13;;;10.52;;
37955;SDS011;23776;51.592;7.180;2023-08-06T00:58:28;17.58;;;9.73;;
37955;SDS011;23776;51.592;7.180;2023-08-06T01:00:54;18.92;;;9.65;;
37955;SDS011;23776;51.592;7.180;2023-08-06T01:03:20;16.23;;;9.75;;
37955;SDS011;23776;51.592;7.180;2023-08-06T01:05:45;20.00;;;9.05;;
37955;SDS011;23776;51.592;7.180;2023-08-06T01:13:42;20.27;;;8.77;;
37955;SDS011;23776;51.592;7.180;2023-08-06T01:16:15;12.13;;;8.43;;
37955;SDS011;23776;51.592;7.180;2023-08-06T01:18:43;15.00;;;8.40;;
37955;SDS011;23776;51.592;7.180;2023-08-06T01:21:12;14.52;;;9.35;;
37955;SDS011;23776;51.592;7.180;2023-08-06T01:23:38;11.85;;;7.63;;
37955;SDS011;23776;51.592;7.180;2023-08-06T01:26:13;17.17;;;9.85;;
37955;SDS011;23776;51.592;7.180;2023-08-06T01:31:18;15.45;;;8.43;;
37955;SDS011;23776;51.592;7.180;2023-08-06T01:33:48;14.13;;;8.98;;
37955;SDS011;23776;51.592;7.180;2023-08-06T01:36:15;13.07;;;7.38;;
37955;SDS011;23776;51.592;7.180;2023-08-06T01:38:43;12.68;;;7.07;;
37955;SDS011;23776;51.592;7.180;2023-08-06T01:41:09;16.20;;;8.23;;
37955;SDS011;23776;51.592;7.180;2023-08-06T01:43:35;13.75;;;7.68;;
37955;SDS011;23776;51.592;7.180;2023-08-06T01:46:00;11.88;;;7.25;;
37955;SDS011;23776;51.592;7.180;2023-08-06T01:48:26;10.27;;;7.50;;
37955;SDS011;23776;51.592;7.180;2023-08-06T01:50:51;11.60;;;7.07;;
37955;SDS011;23776;51.592;7.180;2023-08-06T01:53:17;12.00;;;6.80;;
37955;SDS011;23776;51.592;7.180;2023-08-06T01:55:47;13.80;;;7.07;;
37955;SDS011;23776;51.592;7.180;2023-08-06T01:58:13;11.52;;;6.65;;
37955;SDS011;23776;51.592;7.180;2023-08-06T02:00:39;10.05;;;6.65;;
37955;SDS011;23776;51.592;7.180;2023-08-06T02:03:05;11.02;;;6.70;;
37955;SDS011;23776;51.592;7.180;2023-08-06T02:05:31;12.57;;;6.57;;
37955;SDS011;23776;51.592;7.180;2023-08-06T02:07:56;12.43;;;7.07;;
37955;SDS011;23776;51.592;7.180;2023-08-06T02:10:22;14.07;;;5.78;;
37955;SDS011;23776;51.592;7.180;2023-08-06T02:12:48;11.80;;;6.32;;
37955;SDS011;23776;51.592;7.180;2023-08-06T02:15:13;10.32;;;5.88;;
37955;SDS011;23776;51.592;7.180;2023-08-06T02:17:39;8.80;;;5.68;;
37955;SDS011;23776;51.592;7.180;2023-08-06T02:20:05;9.02;;;6.20;;
37955;SDS011;23776;51.592;7.180;2023-08-06T02:22:31;11.63;;;5.53;;
37955;SDS011;23776;51.592;7.180;2023-08-06T02:24:56;9.98;;;5.55;;
37955;SDS011;23776;51.592;7.180;2023-08-06T02:27:22;12.48;;;5.97;;
37955;SDS011;23776;51.592;7.180;2023-08-06T02:29:47;10.77;;;5.72;;
37955;SDS011;23776;51.592;7.180;2023-08-06T02:32:13;8.70;;;6.32;;
37955;SDS011;23776;51.592;7.180;2023-08-06T02:34:39;11.63;;;6.00;;
37955;SDS011;23776;51.592;7.180;2023-08-06T02:37:04;18.02;;;7.78;;
37955;SDS011;23776;51.592;7.180;2023-08-06T02:39:30;9.35;;;5.97;;
37955;SDS011;23776;51.592;7.180;2023-08-06T02:41:55;16.75;;;7.18;;
37955;SDS011;23776;51.592;7.180;2023-08-06T02:44:21;9.55;;;5.93;;
37955;SDS011;23776;51.592;7.180;2023-08-06T02:46:47;7.57;;;5.70;;
37955;SDS011;23776;51.592;7.180;2023-08-06T02:49:12;11.30;;;6.15;;
37955;SDS011;23776;51.592;7.180;2023-08-06T02:51:38;13.57;;;6.13;;
37955;SDS011;23776;51.592;7.180;2023-08-06T02:54:03;15.90;;;5.70;;
37955;SDS011;23776;51.592;7.180;2023-08-06T02:56:29;10.70;;;6.38;;
37955;SDS011;23776;51.592;7.180;2023-08-06T02:58:54;8.48;;;5.43;;
37955;SDS011;23776;51.592;7.180;2023-08-06T03:01:20;7.72;;;5.63;;
37955;SDS011;23776;51.592;7.180;2023-08-06T03:03:45;10.52;;;6.82;;
37955;SDS011;23776;51.592;7.180;2023-08-06T03:06:11;12.13;;;5.75;;
37955;SDS011;23776;51.592;7.180;2023-08-06T03:08:37;14.15;;;5.55;;
37955;SDS011;23776;51.592;7.180;2023-08-06T03:11:02;9.43;;;5.30;;
37955;SDS011;23776;51.592;7.180;2023-08-06T03:13:28;11.73;;;5.45;;
37955;SDS011;23776;51.592;7.180;2023-08-06T03:15:54;10.15;;;5.25;;
37955;SDS011;23776;51.592;7.180;2023-08-06T03:18:21;9.45;;;5.72;;
37955;SDS011;23776;51.592;7.180;2023-08-06T03:20:47;10.52;;;5.18;;
37955;SDS011;23776;51.592;7.180;2023-08-06T03:23:13;12.55;;;5.70;;
37955;SDS011;23776;51.592;7.180;2023-08-06T03:25:39;7.78;;;5.00;;
37955;SDS011;23776;51.592;7.180;2023-08-06T03:28:04;9.02;;;5.68;;
37955;SDS011;23776;51.592;7.180;2023-08-06T03:30:30;9.10;;;5.68;;
37955;SDS011;23776;51.592;7.180;2023-08-06T03:32:55;7.00;;;5.13;;
37955;SDS011;23776;51.592;7.180;2023-08-06T03:35:21;12.60;;;5.65;;
37955;SDS011;23776;51.592;7.180;2023-08-06T03:37:46;15.93;;;5.88;;
37955;SDS011;23776;51.592;7.180;2023-08-06T03:40:13;9.98;;;5.75;;
37955;SDS011;23776;51.592;7.180;2023-08-06T03:42:39;7.63;;;5.38;;
37955;SDS011;23776;51.592;7.180;2023-08-06T03:45:04;16.15;;;6.05;;
37955;SDS011;23776;51.592;7.180;2023-08-06T03:47:30;13.20;;;5.72;;
37955;SDS011;23776;51.592;7.180;2023-08-06T03:49:56;15.18;;;5.05;;
37955;SDS011;23776;51.592;7.180;2023-08-06T03:52:21;10.13;;;5.75;;
37955;SDS011;23776;51.592;7.180;2023-08-06T03:54:47;13.13;;;5.80;;
37955;SDS011;23776;51.592;7.180;2023-08-06T03:57:13;11.38;;;5.57;;
37955;SDS011;23776;51.592;7.180;2023-08-06T03:59:38;9.23;;;5.40;;
37955;SDS011;23776;51.592;7.180;2023-08-06T04:02:04;11.35;;;5.65;;
37955;SDS011;23776;51.592;7.180;2023-08-06T04:04:29;11.63;;;5.35;;
37955;SDS011;23776;51.592;7.180;2023-08-06T04:06:55;14.25;;;6.63;;
37955;SDS011;23776;51.592;7.180;2023-08-06T04:09:20;9.65;;;5.68;;
37955;SDS011;23776;51.592;7.180;2023-08-06T04:11:46;16.15;;;5.20;;
37955;SDS011;23776;51.592;7.180;2023-08-06T04:14:12;9.25;;;5.38;;
37955;SDS011;23776;51.592;7.180;2023-08-06T04:16:37;8.02;;;5.40;;
37955;SDS011;23776;51.592;7.180;2023-08-06T04:19:03;9.27;;;5.82;;
37955;SDS011;23776;51.592;7.180;2023-08-06T04:21:28;10.77;;;5.63;;
37955;SDS011;23776;51.592;7.180;2023-08-06T04:23:55;10.30;;;6.10;;
37955;SDS011;23776;51.592;7.180;2023-08-06T04:26:21;9.82;;;5.75;;
37955;SDS011;23776;51.592;7.180;2023-08-06T04:28:46;10.88;;;5.53;;
37955;SDS011;23776;51.592;7.180;2023-08-06T04:31:12;12.32;;;5.75;;
37955;SDS011;23776;51.592;7.180;2023-08-06T04:33:38;8.88;;;5.65;;
37955;SDS011;23776;51.592;7.180;2023-08-06T04:36:03;9.73;;;5.63;;
37955;SDS011;23776;51.592;7.180;2023-08-06T04:38:29;9.40;;;5.95;;
37955;SDS011;23776;51.592;7.180;2023-08-06T04:40:55;11.23;;;6.28;;
37955;SDS011;23776;51.592;7.180;2023-08-06T04:43:20;7.72;;;5.35;;
37955;SDS011;23776;51.592;7.180;2023-08-06T04:45:47;10.85;;;6.25;;
37955;SDS011;23776;51.592;7.180;2023-08-06T04:48:15;10.02;;;5.93;;
37955;SDS011;23776;51.592;7.180;2023-08-06T04:50:45;9.07;;;6.30;;
37955;SDS011;23776;51.592;7.180;2023-08-06T04:53:11;9.82;;;5.63;;
37955;SDS011;23776;51.592;7.180;2023-08-06T04:55:37;10.60;;;5.97;;
37955;SDS011;23776;51.592;7.180;2023-08-06T04:58:03;10.52;;;6.00;;
37955;SDS011;23776;51.592;7.180;2023-08-06T05:00:29;10.77;;;6.18;;
37955;SDS011;23776;51.592;7.180;2023-08-06T05:02:55;11.75;;;6.07;;
37955;SDS011;23776;51.592;7.180;2023-08-06T05:05:21;12.32;;;6.60;;
37955;SDS011;23776;51.592;7.180;2023-08-06T05:07:48;10.20;;;6.30;;
37955;SDS011;23776;51.592;7.180;2023-08-06T05:10:14;15.52;;;7.82;;
37955;SDS011;23776;51.592;7.180;2023-08-06T05:12:40;11.90;;;6.88;;
37955;SDS011;23776;51.592;7.180;2023-08-06T05:15:06;8.57;;;6.30;;
37955;SDS011;23776;51.592;7.180;2023-08-06T05:17:32;10.70;;;6.65;;
37955;SDS011;23776;51.592;7.180;2023-08-06T05:19:58;11.02;;;6.53;;
37955;SDS011;23776;51.592;7.180;2023-08-06T05:22:24;10.75;;;7.50;;
37955;SDS011;23776;51.592;7.180;2023-08-06T05:24:50;9.48;;;6.97;;
37955;SDS011;23776;51.592;7.180;2023-08-06T05:27:16;13.98;;;6.70;;
37955;SDS011;23776;51.592;7.180;2023-08-06T05:29:43;10.63;;;6.45;;
37955;SDS011;23776;51.592;7.180;2023-08-06T05:32:09;13.38;;;6.63;;
37955;SDS011;23776;51.592;7.180;2023-08-06T05:34:35;10.77;;;6.53;;
37955;SDS011;23776;51.592;7.180;2023-08-06T05:37:01;12.85;;;7.30;;
37955;SDS011;23776;51.592;7.180;2023-08-06T05:39:26;12.85;;;7.05;;
37955;SDS011;23776;51.592;7.180;2023-08-06T05:41:52;8.85;;;6.20;;
37955;SDS011;23776;51.592;7.180;2023-08-06T05:44:18;10.13;;;6.18;;
37955;SDS011;23776;51.592;7.180;2023-08-06T05:46:43;10.95;;;5.80;;
37955;SDS011;23776;51.592;7.180;2023-08-06T05:49:09;8.27;;;6.00;;
37955;SDS011;23776;51.592;7.180;2023-08-06T05:51:34;9.63;;;5.35;;
37955;SDS011;23776;51.592;7.180;2023-08-06T05:54:00;11.57;;;6.93;;
37955;SDS011;23776;51.592;7.180;2023-08-06T05:56:25;11.02;;;6.40;;
37955;SDS011;23776;51.592;7.180;2023-08-06T05:58:51;11.68;;;6.53;;
37955;SDS011;23776;51.592;7.180;2023-08-06T06:01:18;11.15;;;5.90;;
37955;SDS011;23776;51.592;7.180;2023-08-06T06:03:44;10.98;;;6.97;;
37955;SDS011;23776;51.592;7.180;2023-08-06T06:06:09;9.82;;;5.78;;
37955;SDS011;23776;51.592;7.180;2023-08-06T06:08:35;8.70;;;5.95;;
37955;SDS011;23776;51.592;7.180;2023-08-06T06:11:01;8.85;;;5.53;;
37955;SDS011;23776;51.592;7.180;2023-08-06T06:13:26;14.90;;;6.00;;
37955;SDS011;23776;51.592;7.180;2023-08-06T06:15:54;8.48;;;5.57;;
37955;SDS011;23776;51.592;7.180;2023-08-06T06:18:20;6.88;;;4.82;;
37955;SDS011;23776;51.592;7.180;2023-08-06T06:20:46;8.60;;;5.43;;
37955;SDS011;23776;51.592;7.180;2023-08-06T06:23:12;7.85;;;5.20;;
37955;SDS011;23776;51.592;7.180;2023-08-06T06:25:41;9.57;;;6.07;;
37955;SDS011;23776;51.592;7.180;2023-08-06T06:28:08;7.72;;;5.53;;
37955;SDS011;23776;51.592;7.180;2023-08-06T06:30:34;8.77;;;5.35;;
37955;SDS011;23776;51.592;7.180;2023-08-06T06:32:59;8.73;;;5.10;;
37955;SDS011;23776;51.592;7.180;2023-08-06T06:35:25;10.43;;;5.43;;
37955;SDS011;23776;51.592;7.180;2023-08-06T06:37:51;9.90;;;5.03;;
37955;SDS011;23776;51.592;7.180;2023-08-06T06:40:16;8.98;;;4.47;;
37955;SDS011;23776;51.592;7.180;2023-08-06T06:42:42;5.25;;;4.10;;
37955;SDS011;23776;51.592;7.180;2023-08-06T06:45:08;9.13;;;5.43;;
37955;SDS011;23776;51.592;7.180;2023-08-06T06:47:34;9.90;;;4.47;;
37955;SDS011;23776;51.592;7.180;2023-08-06T06:50:00;9.65;;;4.57;;
37955;SDS011;23776;51.592;7.180;2023-08-06T06:52:25;5.25;;;3.47;;
37955;SDS011;23776;51.592;7.180;2023-08-06T06:54:51;6.05;;;3.38;;
37955;SDS011;23776;51.592;7.180;2023-08-06T06:57:16;6.70;;;3.45;;
37955;SDS011;23776;51.592;7.180;2023-08-06T06:59:42;6.43;;;3.58;;
37955;SDS011;23776;51.592;7.180;2023-08-06T07:02:08;5.85;;;3.40;;
37955;SDS011;23776;51.592;7.180;2023-08-06T07:04:33;7.28;;;3.35;;
37955;SDS011;23776;51.592;7.180;2023-08-06T07:06:59;7.68;;;3.70;;
37955;SDS011;23776;51.592;7.180;2023-08-06T07:09:24;8.15;;;3.55;;
37955;SDS011;23776;51.592;7.180;2023-08-06T07:11:50;5.70;;;2.95;;
37955;SDS011;23776;51.592;7.180;2023-08-06T07:14:17;8.77;;;3.50;;
37955;SDS011;23776;51.592;7.180;2023-08-06T07:16:42;9.35;;;4.63;;
37955;SDS011;23776;51.592;7.180;2023-08-06T07:19:08;3.72;;;2.78;;
37955;SDS011;23776;51.592;7.180;2023-08-06T07:21:34;6.53;;;2.85;;
37955;SDS011;23776;51.592;7.180;2023-08-06T07:23:59;4.93;;;3.03;;
37955;SDS011;23776;51.592;7.180;2023-08-06T07:26:25;4.07;;;2.70;;
37955;SDS011;23776;51.592;7.180;2023-08-06T07:28:50;7.65;;;2.60;;
37955;SDS011;23776;51.592;7.180;2023-08-06T07:31:16;5.80;;;3.45;;
37955;SDS011;23776;51.592;7.180;2023-08-06T07:33:42;7.88;;;2.60;;
37955;SDS011;23776;51.592;7.180;2023-08-06T07:36:10;6.65;;;2.20;;
37955;SDS011;23776;51.592;7.180;2023-08-06T07:38:36;4.10;;;2.85;;
37955;SDS011;23776;51.592;7.180;2023-08-06T07:41:03;4.40;;;2.92;;
37955;SDS011;23776;51.592;7.180;2023-08-06T07:43:29;5.88;;;2.30;;
37955;SDS011;23776;51.592;7.180;2023-08-06T07:45:57;7.00;;;2.80;;
37955;SDS011;23776;51.592;7.180;2023-08-06T07:48:24;4.30;;;2.60;;
37955;SDS011;23776;51.592;7.180;2023-08-06T07:50:54;6.75;;;2.90;;
37955;SDS011;23776;51.592;7.180;2023-08-06T07:53:20;5.68;;;2.60;;
37955;SDS011;23776;51.592;7.180;2023-08-06T07:55:49;7.50;;;2.47;;
37955;SDS011;23776;51.592;7.180;2023-08-06T07:58:18;6.45;;;3.30;;
37955;SDS011;23776;51.592;7.180;2023-08-06T08:00:44;5.60;;;3.17;;
37955;SDS011;23776;51.592;7.180;2023-08-06T08:03:11;6.55;;;3.17;;
37955;SDS011;23776;51.592;7.180;2023-08-06T08:05:38;4.13;;;2.63;;
37955;SDS011;23776;51.592;7.180;2023-08-06T08:08:04;4.38;;;2.58;;
37955;SDS011;23776;51.592;7.180;2023-08-06T08:10:30;3.65;;;2.58;;
37955;SDS011;23776;51.592;7.180;2023-08-06T08:12:56;4.60;;;2.88;;
37955;SDS011;23776;51.592;7.180;2023-08-06T08:15:22;6.35;;;3.22;;
37955;SDS011;23776;51.592;7.180;2023-08-06T08:17:51;8.52;;;3.22;;
37955;SDS011;23776;51.592;7.180;2023-08-06T08:20:17;4.00;;;2.78;;
37955;SDS011;23776;51.592;7.180;2023-08-06T08:22:42;5.88;;;2.67;;
37955;SDS011;23776;51.592;7.180;2023-08-06T08:25:08;6.47;;;3.22;;
37955;SDS011;23776;51.592;7.180;2023-08-06T08:27:34;3.38;;;2.75;;
37955;SDS011;23776;51.592;7.180;2023-08-06T08:29:59;4.90;;;2.90;;
37955;SDS011;23776;51.592;7.180;2023-08-06T08:32:25;5.03;;;3.05;;
37955;SDS011;23776;51.592;7.180;2023-08-06T08:34:50;4.90;;;3.63;;
37955;SDS011;23776;51.592;7.180;2023-08-06T08:37:16;7.43;;;3.85;;
37955;SDS011;23776;51.592;7.180;2023-08-06T08:39:42;9.98;;;3.78;;
37955;SDS011;23776;51.592;7.180;2023-08-06T08:42:08;12.35;;;4.32;;
37955;SDS011;23776;51.592;7.180;2023-08-06T08:44:35;7.55;;;4.57;;
37955;SDS011;23776;51.592;7.180;2023-08-06T08:47:04;9.48;;;6.00;;
37955;SDS011;23776;51.592;7.180;2023-08-06T08:49:31;7.50;;;4.60;;
37955;SDS011;23776;51.592;7.180;2023-08-06T08:51:57;8.43;;;5.03;;
37955;SDS011;23776;51.592;7.180;2023-08-06T08:54:24;9.75;;;4.03;;
37955;SDS011;23776;51.592;7.180;2023-08-06T08:56:51;7.70;;;4.75;;
37955;SDS011;23776;51.592;7.180;2023-08-06T08:59:16;9.48;;;4.72;;
37955;SDS011;23776;51.592;7.180;2023-08-06T09:01:43;6.75;;;4.18;;
37955;SDS011;23776;51.592;7.180;2023-08-06T09:04:15;9.52;;;4.60;;
37955;SDS011;23776;51.592;7.180;2023-08-06T09:06:41;6.53;;;3.63;;
37955;SDS011;23776;51.592;7.180;2023-08-06T09:09:22;7.20;;;4.15;;
37955;SDS011;23776;51.592;7.180;2023-08-06T09:11:51;9.07;;;4.28;;
37955;SDS011;23776;51.592;7.180;2023-08-06T09:14:19;8.57;;;4.38;;
37955;SDS011;23776;51.592;7.180;2023-08-06T09:16:44;9.80;;;4.15;;
37955;SDS011;23776;51.592;7.180;2023-08-06T09:19:12;7.72;;;4.35;;
37955;SDS011;23776;51.592;7.180;2023-08-06T09:21:40;7.20;;;3.80;;
37955;SDS011;23776;51.592;7.180;2023-08-06T09:24:10;4.53;;;3.83;;
37955;SDS011;23776;51.592;7.180;2023-08-06T09:26:37;6.30;;;3.90;;
37955;SDS011;23776;51.592;7.180;2023-08-06T09:29:07;5.40;;;3.75;;
37955;SDS011;23776;51.592;7.180;2023-08-06T09:34:15;5.88;;;3.55;;
37955;SDS011;23776;51.592;7.180;2023-08-06T09:36:42;4.80;;;3.38;;
37955;SDS011;23776;51.592;7.180;2023-08-06T09:39:16;8.27;;;4.20;;
37955;SDS011;23776;51.592;7.180;2023-08-06T09:41:44;5.28;;;3.70;;
37955;SDS011;23776;51.592;7.180;2023-08-06T09:44:20;9.00;;;4.03;;
37955;SDS011;23776;51.592;7.180;2023-08-06T09:46:53;5.47;;;3.85;;
37955;SDS011;23776;51.592;7.180;2023-08-06T09:51:52;7.25;;;4.00;;
37955;SDS011;23776;51.592;7.180;2023-08-06T09:54:22;6.15;;;3.92;;
37955;SDS011;23776;51.592;7.180;2023-08-06T09:56:48;10.60;;;6.13;;
37955;SDS011;23776;51.592;7.180;2023-08-06T09:59:14;8.25;;;5.88;;
37955;SDS011;23776;51.592;7.180;2023-08-06T10:01:43;6.65;;;5.90;;
37955;SDS011;23776;51.592;7.180;2023-08-06T10:04:11;11.73;;;6.28;;
37955;SDS011;23776;51.592;7.180;2023-08-06T10:06:41;6.25;;;5.63;;
37955;SDS011;23776;51.592;7.180;2023-08-06T10:09:07;7.78;;;5.32;;
37955;SDS011;23776;51.592;7.180;2023-08-06T10:11:34;6.82;;;5.88;;
37955;SDS011;23776;51.592;7.180;2023-08-06T10:16:58;6.25;;;5.22;;
37955;SDS011;23776;51.592;7.180;2023-08-06T10:19:25;5.40;;;4.60;;
37955;SDS011;23776;51.592;7.180;2023-08-06T10:24:49;5.78;;;4.45;;
37955;SDS011;23776;51.592;7.180;2023-08-06T10:38:16;6.53;;;3.85;;
37955;SDS011;23776;51.592;7.180;2023-08-06T10:40:49;6.38;;;3.90;;
37955;SDS011;23776;51.592;7.180;2023-08-06T10:46:25;8.55;;;4.97;;
37955;SDS011;23776;51.592;7.180;2023-08-06T10:48:52;5.07;;;4.32;;
37955;SDS011;23776;51.592;7.180;2023-08-06T10:51:18;6.68;;;3.58;;
37955;SDS011;23776;51.592;7.180;2023-08-06T10:53:44;6.30;;;3.70;;
37955;SDS011;23776;51.592;7.180;2023-08-06T10:56:15;8.05;;;3.80;;
37955;SDS011;23776;51.592;7.180;2023-08-06T10:58:44;6.28;;;3.88;;
37955;SDS011;23776;51.592;7.180;2023-08-06T11:01:11;7.85;;;4.30;;
37955;SDS011;23776;51.592;7.180;2023-08-06T11:03:38;5.05;;;4.10;;
37955;SDS011;23776;51.592;7.180;2023-08-06T11:06:04;3.95;;;3.55;;
37955;SDS011;23776;51.592;7.180;2023-08-06T11:08:38;5.97;;;3.53;;
37955;SDS011;23776;51.592;7.180;2023-08-06T11:11:15;4.50;;;3.88;;
37955;SDS011;23776;51.592;7.180;2023-08-06T11:13:42;8.00;;;4.65;;
37955;SDS011;23776;51.592;7.180;2023-08-06T11:16:11;4.88;;;3.97;;
37955;SDS011;23776;51.592;7.180;2023-08-06T11:18:39;5.85;;;3.22;;
37955;SDS011;23776;51.592;7.180;2023-08-06T11:21:07;3.88;;;3.28;;
37955;SDS011;23776;51.592;7.180;2023-08-06T11:23:33;3.10;;;2.70;;
37955;SDS011;23776;51.592;7.180;2023-08-06T11:25:59;3.85;;;3.08;;
37955;SDS011;23776;51.592;7.180;2023-08-06T11:28:25;3.65;;;2.95;;
37955;SDS011;23776;51.592;7.180;2023-08-06T11:30:51;15.88;;;4.53;;
37955;SDS011;23776;51.592;7.180;2023-08-06T11:33:21;20.55;;;5.47;;
37955;SDS011;23776;51.592;7.180;2023-08-06T11:35:48;12.65;;;6.53;;
37955;SDS011;23776;51.592;7.180;2023-08-06T11:38:14;10.55;;;7.70;;
37955;SDS011;23776;51.592;7.180;2023-08-06T11:40:41;8.40;;;6.80;;
37955;SDS011;23776;51.592;7.180;2023-08-06T11:43:12;13.32;;;6.47;;
37955;SDS011;23776;51.592;7.180;2023-08-06T11:45:38;11.25;;;7.55;;
37955;SDS011;23776;51.592;7.180;2023-08-06T11:48:03;15.98;;;8.23;;
37955;SDS011;23776;51.592;7.180;2023-08-06T11:50:30;10.20;;;7.88;;
37955;SDS011;23776;51.592;7.180;2023-08-06T11:52:56;14.70;;;8.40;;
37955;SDS011;23776;51.592;7.180;2023-08-06T11:55:23;13.15;;;9.02;;
37955;SDS011;23776;51.592;7.180;2023-08-06T11:57:49;13.52;;;10.35;;
37955;SDS011;23776;51.592;7.180;2023-08-06T12:00:16;14.30;;;8.90;;
37955;SDS011;23776;51.592;7.180;2023-08-06T12:02:43;21.92;;;11.75;;
37955;SDS011;23776;51.592;7.180;2023-08-06T12:05:14;24.35;;;12.65;;
37955;SDS011;23776;51.592;7.180;2023-08-06T12:07:42;14.43;;;10.90;;
37955;SDS011;23776;51.592;7.180;2023-08-06T12:10:09;26.80;;;13.80;;
37955;SDS011;23776;51.592;7.180;2023-08-06T12:12:36;16.08;;;12.13;;
37955;SDS011;23776;51.592;7.180;2023-08-06T12:15:02;27.50;;;13.45;;
37955;SDS011;23776;51.592;7.180;2023-08-06T12:17:28;24.15;;;15.27;;
37955;SDS011;23776;51.592;7.180;2023-08-06T12:19:55;25.63;;;14.48;;
37955;SDS011;23776;51.592;7.180;2023-08-06T12:22:20;19.63;;;11.25;;
37955;SDS011;23776;51.592;7.180;2023-08-06T12:24:47;24.38;;;12.25;;
37955;SDS011;23776;51.592;7.180;2023-08-06T12:27:13;18.10;;;9.40;;
37955;SDS011;23776;51.592;7.180;2023-08-06T12:29:41;21.95;;;13.30;;
37955;SDS011;23776;51.592;7.180;2023-08-06T12:32:08;18.90;;;10.77;;
37955;SDS011;23776;51.592;7.180;2023-08-06T12:34:35;22.48;;;10.73;;
37955;SDS011;23776;51.592;7.180;2023-08-06T12:37:01;17.48;;;9.43;;
37955;SDS011;23776;51.592;7.180;2023-08-06T12:39:27;17.17;;;9.68;;
37955;SDS011;23776;51.592;7.180;2023-08-06T12:41:54;10.48;;;5.05;;
37955;SDS011;23776;51.592;7.180;2023-08-06T12:44:20;8.38;;;4.32;;
37955;SDS011;23776;51.592;7.180;2023-08-06T12:50:08;7.68;;;3.80;;
37955;SDS011;23776;51.592;7.180;2023-08-06T12:52:34;4.78;;;2.17;;
37955;SDS011;23776;51.592;7.180;2023-08-06T12:54:59;9.55;;;4.28;;
37955;SDS011;23776;51.592;7.180;2023-08-06T12:57:25;13.63;;;4.63;;
37955;SDS011;23776;51.592;7.180;2023-08-06T12:59:52;9.00;;;2.75;;
37955;SDS011;23776;51.592;7.180;2023-08-06T13:02:18;11.88;;;4.25;;
37955;SDS011;23776;51.592;7.180;2023-08-06T13:04:43;9.82;;;2.80;;
37955;SDS011;23776;51.592;7.180;2023-08-06T13:07:11;8.00;;;3.60;;
37955;SDS011;23776;51.592;7.180;2023-08-06T13:09:36;7.07;;;2.58;;
37955;SDS011;23776;51.592;7.180;2023-08-06T13:12:02;7.90;;;4.43;;
37955;SDS011;23776;51.592;7.180;2023-08-06T13:14:30;3.20;;;1.70;;
37955;SDS011;23776;51.592;7.180;2023-08-06T13:16:56;10.10;;;3.72;;
37955;SDS011;23776;51.592;7.180;2023-08-06T13:19:22;5.50;;;4.45;;
37955;SDS011;23776;51.592;7.180;2023-08-06T13:24:15;5.63;;;3.50;;
37955;SDS011;23776;51.592;7.180;2023-08-06T13:26:41;4.70;;;3.17;;
37955;SDS011;23776;51.592;7.180;2023-08-06T13:29:06;3.35;;;2.13;;
37955;SDS011;23776;51.592;7.180;2023-08-06T13:31:32;3.15;;;2.15;;
37955;SDS011;23776;51.592;7.180;2023-08-06T13:33:58;3.83;;;2.40;;
37955;SDS011;23776;51.592;7.180;2023-08-06T13:36:24;4.05;;;2.80;;
37955;SDS011;23776;51.592;7.180;2023-08-06T13:38:52;4.93;;;3.28;;
37955;SDS011;23776;51.592;7.180;2023-08-06T13:41:18;3.40;;;2.25;;
37955;SDS011;23776;51.592;7.180;2023-08-06T13:43:44;3.90;;;2.58;;
37955;SDS011;23776;51.592;7.180;2023-08-06T13:46:10;3.55;;;1.83;;
37955;SDS011;23776;51.592;7.180;2023-08-06T13:48:41;2.20;;;1.70;;
37955;SDS011;23776;51.592;7.180;2023-08-06T13:51:10;3.53;;;1.60;;
37955;SDS011;23776;51.592;7.180;2023-08-06T13:53:39;3.28;;;1.73;;
37955;SDS011;23776;51.592;7.180;2023-08-06T13:56:06;3.20;;;1.90;;
37955;SDS011;23776;51.592;7.180;2023-08-06T13:58:32;2.30;;;1.55;;
37955;SDS011;23776;51.592;7.180;2023-08-06T14:00:58;6.10;;;3.20;;
37955;SDS011;23776;51.592;7.180;2023-08-06T14:03:24;5.53;;;3.00;;
37955;SDS011;23776;51.592;7.180;2023-08-06T14:05:50;6.55;;;3.58;;
37955;SDS011;23776;51.592;7.180;2023-08-06T14:08:16;3.03;;;1.70;;
37955;SDS011;23776;51.592;7.180;2023-08-06T14:10:44;13.70;;;8.55;;
37955;SDS011;23776;51.592;7.180;2023-08-06T14:13:10;15.75;;;10.25;;
37955;SDS011;23776;51.592;7.180;2023-08-06T14:15:37;5.10;;;3.08;;
37955;SDS011;23776;51.592;7.180;2023-08-06T14:18:05;4.43;;;2.55;;
37955;SDS011;23776;51.592;7.180;2023-08-06T14:20:33;1.92;;;1.25;;
37955;SDS011;23776;51.592;7.180;2023-08-06T14:22:59;2.70;;;1.50;;
37955;SDS011;23776;51.592;7.180;2023-08-06T14:25:24;3.35;;;1.95;;
37955;SDS011;23776;51.592;7.180;2023-08-06T14:27:50;2.70;;;1.73;;
37955;SDS011;23776;51.592;7.180;2023-08-06T14:30:16;3.55;;;2.10;;
37955;SDS011;23776;51.592;7.180;2023-08-06T14:32:41;3.22;;;2.08;;
37955;SDS011;23776;51.592;7.180;2023-08-06T14:35:07;2.95;;;1.63;;
37955;SDS011;23776;51.592;7.180;2023-08-06T14:37:33;2.25;;;1.52;;
37955;SDS011;23776;51.592;7.180;2023-08-06T14:39:58;5.10;;;1.90;;
37955;SDS011;23776;51.592;7.180;2023-08-06T14:42:24;5.45;;;2.00;;
37955;SDS011;23776;51.592;7.180;2023-08-06T14:44:49;3.67;;;1.67;;
37955;SDS011;23776;51.592;7.180;2023-08-06T14:47:16;2.88;;;1.92;;
37955;SDS011;23776;51.592;7.180;2023-08-06T14:49:44;3.42;;;1.42;;
37955;SDS011;23776;51.592;7.180;2023-08-06T14:52:10;2.75;;;2.03;;
37955;SDS011;23776;51.592;7.180;2023-08-06T14:54:35;3.45;;;1.98;;
37955;SDS011;23776;51.592;7.180;2023-08-06T14:57:01;3.78;;;1.85;;
37955;SDS011;23776;51.592;7.180;2023-08-06T14:59:27;3.67;;;1.67;;
37955;SDS011;23776;51.592;7.180;2023-08-06T15:01:53;4.63;;;2.05;;
37955;SDS011;23776;51.592;7.180;2023-08-06T15:04:18;4.32;;;2.17;;
37955;SDS011;23776;51.592;7.180;2023-08-06T15:06:44;3.72;;;2.17;;
37955;SDS011;23776;51.592;7.180;2023-08-06T15:09:10;5.90;;;3.13;;
37955;SDS011;23776;51.592;7.180;2023-08-06T15:11:36;6.75;;;3.28;;
37955;SDS011;23776;51.592;7.180;2023-08-06T15:14:02;5.95;;;2.95;;